sensor_id;sensor_type;location;lat;lon;timestamp;P1;durP1;ratioP1;P2;durP2;ratioP2
23148;SDS011;11743;51.228;22.498;2022-10-14T00:00:09;37.03;;;21.58;;
23148;SDS011;11743;51.228;22.498;2022-10-14T00:00:32;37.42;;;21.23;;
23148;SDS011;11743;51.228;22.498;2022-10-14T00:00:59;37.97;;;21.67;;
23148;SDS011;11743;51.228;22.498;2022-10-14T00:01:22;40.42;;;21.67;;
23148;SDS011;11743;51.228;22.498;2022-10-14T00:01:45;34.83;;;20.48;;
23148;SDS011;11743;51.228;22.498;2022-10-14T00:02:07;34.60;;;20.23;;
23148;SDS011;11743;51.228;22.498;2022-10-14T00:02:29;36.63;;;20.20;;
23148;SDS011;11743;51.228;22.498;2022-10-14T00:02:51;36.30;;;19.90;;
23148;SDS011;11743;51.228;22.498;2022-10-14T00:03:13;33.63;;;19.73;;
23148;SDS011;11743;51.228;22.498;2022-10-14T00:03:36;33.92;;;20.33;;
23148;SDS011;11743;51.228;22.498;2022-10-14T00:03:59;35.85;;;20.65;;
23148;SDS011;11743;51.228;22.498;2022-10-14T00:04:21;32.85;;;19.73;;
23148;SDS011;11743;51.228;22.498;2022-10-14T00:04:43;35.45;;;20.52;;
23148;SDS011;11743;51.228;22.498;2022-10-14T00:05:05;37.45;;;21.25;;
23148;SDS011;11743;51.228;22.498;2022-10-14T00:05:27;35.17;;;20.15;;
23148;SDS011;11743;51.228;22.498;2022-10-14T00:05:49;35.13;;;20.05;;
23148;SDS011;11743;51.228;22.498;2022-10-14T00:06:12;36.47;;;20.33;;
23148;SDS011;11743;51.228;22.498;2022-10-14T00:06:35;34.33;;;19.80;;
23148;SDS011;11743;51.228;22.498;2022-10-14T00:06:57;33.72;;;19.50;;
23148;SDS011;11743;51.228;22.498;2022-10-14T00:07:20;32.78;;;19.65;;
23148;SDS011;11743;51.228;22.498;2022-10-14T00:07:42;40.28;;;20.70;;
23148;SDS011;11743;51.228;22.498;2022-10-14T00:08:04;34.53;;;19.92;;
23148;SDS011;11743;51.228;22.498;2022-10-14T00:08:26;34.85;;;19.88;;
23148;SDS011;11743;51.228;22.498;2022-10-14T00:08:51;35.72;;;20.00;;
23148;SDS011;11743;51.228;22.498;2022-10-14T00:09:13;33.60;;;19.55;;
23148;SDS011;11743;51.228;22.498;2022-10-14T00:09:36;36.28;;;20.00;;
23148;SDS011;11743;51.228;22.498;2022-10-14T00:09:59;36.95;;;20.08;;
23148;SDS011;11743;51.228;22.498;2022-10-14T00:10:22;36.60;;;20.15;;
23148;SDS011;11743;51.228;22.498;2022-10-14T00:10:43;35.45;;;20.20;;
23148;SDS011;11743;51.228;22.498;2022-10-14T00:11:10;35.03;;;19.98;;
23148;SDS011;11743;51.228;22.498;2022-10-14T00:11:34;37.80;;;21.30;;
23148;SDS011;11743;51.228;22.498;2022-10-14T00:11:57;36.88;;;20.58;;
23148;SDS011;11743;51.228;22.498;2022-10-14T00:12:19;33.28;;;18.88;;
23148;SDS011;11743;51.228;22.498;2022-10-14T00:12:41;33.00;;;19.67;;
23148;SDS011;11743;51.228;22.498;2022-10-14T00:13:03;34.42;;;19.85;;
23148;SDS011;11743;51.228;22.498;2022-10-14T00:13:25;32.83;;;19.80;;
23148;SDS011;11743;51.228;22.498;2022-10-14T00:13:47;36.53;;;19.80;;
23148;SDS011;11743;51.228;22.498;2022-10-14T00:14:11;36.28;;;20.85;;
23148;SDS011;11743;51.228;22.498;2022-10-14T00:14:36;34.90;;;19.55;;
23148;SDS011;11743;51.228;22.498;2022-10-14T00:14:59;34.70;;;19.70;;
23148;SDS011;11743;51.228;22.498;2022-10-14T00:15:20;36.08;;;19.85;;
23148;SDS011;11743;51.228;22.498;2022-10-14T00:15:42;33.13;;;19.70;;
23148;SDS011;11743;51.228;22.498;2022-10-14T00:16:04;37.28;;;20.27;;
23148;SDS011;11743;51.228;22.498;2022-10-14T00:16:31;34.42;;;19.45;;
23148;SDS011;11743;51.228;22.498;2022-10-14T00:16:55;35.33;;;19.77;;
23148;SDS011;11743;51.228;22.498;2022-10-14T00:17:16;37.17;;;20.10;;
23148;SDS011;11743;51.228;22.498;2022-10-14T00:17:38;35.30;;;20.33;;
23148;SDS011;11743;51.228;22.498;2022-10-14T00:18:00;34.03;;;20.83;;
23148;SDS011;11743;51.228;22.498;2022-10-14T00:18:22;34.47;;;21.13;;
23148;SDS011;11743;51.228;22.498;2022-10-14T00:18:44;38.15;;;21.02;;
23148;SDS011;11743;51.228;22.498;2022-10-14T00:19:06;36.15;;;20.52;;
23148;SDS011;11743;51.228;22.498;2022-10-14T00:19:28;37.22;;;21.15;;
23148;SDS011;11743;51.228;22.498;2022-10-14T00:19:50;34.00;;;20.30;;
23148;SDS011;11743;51.228;22.498;2022-10-14T00:20:12;35.13;;;20.23;;
23148;SDS011;11743;51.228;22.498;2022-10-14T00:20:34;36.08;;;20.63;;
23148;SDS011;11743;51.228;22.498;2022-10-14T00:20:56;35.50;;;20.55;;
23148;SDS011;11743;51.228;22.498;2022-10-14T00:21:20;36.92;;;20.60;;
23148;SDS011;11743;51.228;22.498;2022-10-14T00:21:42;39.92;;;21.33;;
23148;SDS011;11743;51.228;22.498;2022-10-14T00:22:05;35.67;;;20.58;;
23148;SDS011;11743;51.228;22.498;2022-10-14T00:22:27;34.35;;;20.98;;
23148;SDS011;11743;51.228;22.498;2022-10-14T00:22:49;36.95;;;20.85;;
23148;SDS011;11743;51.228;22.498;2022-10-14T00:23:11;35.88;;;20.67;;
23148;SDS011;11743;51.228;22.498;2022-10-14T00:23:33;35.47;;;20.70;;
23148;SDS011;11743;51.228;22.498;2022-10-14T00:23:55;34.45;;;19.67;;
23148;SDS011;11743;51.228;22.498;2022-10-14T00:24:17;34.58;;;19.70;;
23148;SDS011;11743;51.228;22.498;2022-10-14T00:24:39;37.15;;;20.23;;
23148;SDS011;11743;51.228;22.498;2022-10-14T00:25:01;38.80;;;20.40;;
23148;SDS011;11743;51.228;22.498;2022-10-14T00:25:23;39.17;;;21.30;;
23148;SDS011;11743;51.228;22.498;2022-10-14T00:25:46;36.92;;;20.05;;
23148;SDS011;11743;51.228;22.498;2022-10-14T00:26:15;37.78;;;21.05;;
23148;SDS011;11743;51.228;22.498;2022-10-14T00:26:37;41.72;;;23.08;;
23148;SDS011;11743;51.228;22.498;2022-10-14T00:27:00;41.65;;;22.50;;
23148;SDS011;11743;51.228;22.498;2022-10-14T00:27:25;41.38;;;21.55;;
23148;SDS011;11743;51.228;22.498;2022-10-14T00:27:46;38.47;;;21.17;;
23148;SDS011;11743;51.228;22.498;2022-10-14T00:28:08;37.35;;;21.00;;
23148;SDS011;11743;51.228;22.498;2022-10-14T00:28:31;35.13;;;20.80;;
23148;SDS011;11743;51.228;22.498;2022-10-14T00:28:54;36.30;;;21.20;;
23148;SDS011;11743;51.228;22.498;2022-10-14T00:29:17;41.47;;;22.67;;
23148;SDS011;11743;51.228;22.498;2022-10-14T00:29:39;39.30;;;22.25;;
23148;SDS011;11743;51.228;22.498;2022-10-14T00:30:01;40.40;;;22.10;;
23148;SDS011;11743;51.228;22.498;2022-10-14T00:30:23;46.08;;;23.90;;
23148;SDS011;11743;51.228;22.498;2022-10-14T00:31:03;47.55;;;24.02;;
23148;SDS011;11743;51.228;22.498;2022-10-14T00:31:25;38.92;;;22.98;;
23148;SDS011;11743;51.228;22.498;2022-10-14T00:31:48;41.03;;;23.33;;
23148;SDS011;11743;51.228;22.498;2022-10-14T00:32:11;41.95;;;22.33;;
23148;SDS011;11743;51.228;22.498;2022-10-14T00:32:34;42.67;;;22.13;;
23148;SDS011;11743;51.228;22.498;2022-10-14T00:32:56;40.45;;;22.30;;
23148;SDS011;11743;51.228;22.498;2022-10-14T00:33:18;39.93;;;22.83;;
23148;SDS011;11743;51.228;22.498;2022-10-14T00:33:40;39.90;;;22.33;;
23148;SDS011;11743;51.228;22.498;2022-10-14T00:34:04;39.42;;;21.92;;
23148;SDS011;11743;51.228;22.498;2022-10-14T00:34:26;41.80;;;22.33;;
23148;SDS011;11743;51.228;22.498;2022-10-14T00:34:50;44.28;;;23.23;;
23148;SDS011;11743;51.228;22.498;2022-10-14T00:35:13;44.05;;;23.13;;
23148;SDS011;11743;51.228;22.498;2022-10-14T00:35:36;41.50;;;22.73;;
23148;SDS011;11743;51.228;22.498;2022-10-14T00:36:00;38.83;;;22.00;;
23148;SDS011;11743;51.228;22.498;2022-10-14T00:36:23;41.70;;;23.05;;
23148;SDS011;11743;51.228;22.498;2022-10-14T00:36:46;41.83;;;22.67;;
23148;SDS011;11743;51.228;22.498;2022-10-14T00:37:07;38.22;;;20.83;;
23148;SDS011;11743;51.228;22.498;2022-10-14T00:37:29;42.13;;;21.92;;
23148;SDS011;11743;51.228;22.498;2022-10-14T00:37:51;39.75;;;22.00;;
23148;SDS011;11743;51.228;22.498;2022-10-14T00:38:13;37.60;;;21.17;;
23148;SDS011;11743;51.228;22.498;2022-10-14T00:38:35;35.20;;;21.42;;
23148;SDS011;11743;51.228;22.498;2022-10-14T00:38:57;33.95;;;21.25;;
23148;SDS011;11743;51.228;22.498;2022-10-14T00:39:19;33.50;;;20.70;;
23148;SDS011;11743;51.228;22.498;2022-10-14T00:39:41;34.75;;;20.80;;
23148;SDS011;11743;51.228;22.498;2022-10-14T00:40:03;35.95;;;21.85;;
23148;SDS011;11743;51.228;22.498;2022-10-14T00:40:26;37.83;;;22.13;;
23148;SDS011;11743;51.228;22.498;2022-10-14T00:40:47;40.40;;;22.48;;
23148;SDS011;11743;51.228;22.498;2022-10-14T00:41:13;41.97;;;22.38;;
23148;SDS011;11743;51.228;22.498;2022-10-14T00:41:46;37.25;;;20.85;;
23148;SDS011;11743;51.228;22.498;2022-10-14T00:42:11;37.20;;;20.17;;
23148;SDS011;11743;51.228;22.498;2022-10-14T00:42:34;40.13;;;20.73;;
23148;SDS011;11743;51.228;22.498;2022-10-14T00:42:59;38.80;;;21.17;;
23148;SDS011;11743;51.228;22.498;2022-10-14T00:43:22;42.97;;;22.17;;
23148;SDS011;11743;51.228;22.498;2022-10-14T00:43:49;42.88;;;21.58;;
23148;SDS011;11743;51.228;22.498;2022-10-14T00:45:09;32.47;;;19.38;;
23148;SDS011;11743;51.228;22.498;2022-10-14T00:45:39;34.00;;;20.70;;
23148;SDS011;11743;51.228;22.498;2022-10-14T00:46:01;33.78;;;21.08;;
23148;SDS011;11743;51.228;22.498;2022-10-14T00:46:23;37.85;;;20.75;;
23148;SDS011;11743;51.228;22.498;2022-10-14T00:46:47;38.50;;;20.88;;
23148;SDS011;11743;51.228;22.498;2022-10-14T00:47:12;37.53;;;21.08;;
23148;SDS011;11743;51.228;22.498;2022-10-14T00:47:34;36.65;;;20.27;;
23148;SDS011;11743;51.228;22.498;2022-10-14T00:47:56;40.30;;;21.73;;
23148;SDS011;11743;51.228;22.498;2022-10-14T00:48:19;39.03;;;20.80;;
23148;SDS011;11743;51.228;22.498;2022-10-14T00:48:44;38.22;;;21.67;;
23148;SDS011;11743;51.228;22.498;2022-10-14T00:49:09;34.35;;;20.95;;
23148;SDS011;11743;51.228;22.498;2022-10-14T00:49:35;40.90;;;21.92;;
23148;SDS011;11743;51.228;22.498;2022-10-14T00:50:00;37.40;;;21.48;;
23148;SDS011;11743;51.228;22.498;2022-10-14T00:50:23;37.80;;;21.17;;
23148;SDS011;11743;51.228;22.498;2022-10-14T00:50:46;39.00;;;21.90;;
23148;SDS011;11743;51.228;22.498;2022-10-14T00:51:11;40.97;;;22.73;;
23148;SDS011;11743;51.228;22.498;2022-10-14T00:51:33;37.72;;;22.00;;
23148;SDS011;11743;51.228;22.498;2022-10-14T00:52:04;40.47;;;22.45;;
23148;SDS011;11743;51.228;22.498;2022-10-14T00:52:32;41.25;;;22.20;;
23148;SDS011;11743;51.228;22.498;2022-10-14T00:52:53;36.57;;;21.50;;
23148;SDS011;11743;51.228;22.498;2022-10-14T00:53:17;38.25;;;21.83;;
23148;SDS011;11743;51.228;22.498;2022-10-14T00:53:40;43.05;;;22.45;;
23148;SDS011;11743;51.228;22.498;2022-10-14T00:54:03;40.78;;;23.42;;
23148;SDS011;11743;51.228;22.498;2022-10-14T00:54:29;40.88;;;22.45;;
23148;SDS011;11743;51.228;22.498;2022-10-14T00:55:02;44.00;;;21.50;;
23148;SDS011;11743;51.228;22.498;2022-10-14T00:55:28;40.92;;;22.63;;
23148;SDS011;11743;51.228;22.498;2022-10-14T00:55:51;41.25;;;22.88;;
23148;SDS011;11743;51.228;22.498;2022-10-14T00:56:13;40.97;;;22.75;;
23148;SDS011;11743;51.228;22.498;2022-10-14T00:56:38;42.10;;;22.15;;
23148;SDS011;11743;51.228;22.498;2022-10-14T00:57:00;43.22;;;22.55;;
23148;SDS011;11743;51.228;22.498;2022-10-14T00:57:23;42.55;;;22.60;;
23148;SDS011;11743;51.228;22.498;2022-10-14T00:57:46;39.17;;;21.35;;
23148;SDS011;11743;51.228;22.498;2022-10-14T00:58:08;36.17;;;20.60;;
23148;SDS011;11743;51.228;22.498;2022-10-14T00:58:30;37.67;;;22.05;;
23148;SDS011;11743;51.228;22.498;2022-10-14T00:58:52;39.42;;;22.00;;
23148;SDS011;11743;51.228;22.498;2022-10-14T00:59:14;41.22;;;22.75;;
23148;SDS011;11743;51.228;22.498;2022-10-14T00:59:36;40.47;;;23.00;;
23148;SDS011;11743;51.228;22.498;2022-10-14T01:00:01;38.05;;;22.63;;
23148;SDS011;11743;51.228;22.498;2022-10-14T01:00:30;35.83;;;21.05;;
23148;SDS011;11743;51.228;22.498;2022-10-14T01:00:52;36.25;;;21.40;;
23148;SDS011;11743;51.228;22.498;2022-10-14T01:01:14;37.75;;;21.30;;
23148;SDS011;11743;51.228;22.498;2022-10-14T01:01:36;42.88;;;21.77;;
23148;SDS011;11743;51.228;22.498;2022-10-14T01:01:57;41.40;;;22.77;;
23148;SDS011;11743;51.228;22.498;2022-10-14T01:02:19;39.90;;;22.05;;
23148;SDS011;11743;51.228;22.498;2022-10-14T01:02:41;40.03;;;21.15;;
23148;SDS011;11743;51.228;22.498;2022-10-14T01:03:15;39.85;;;22.35;;
23148;SDS011;11743;51.228;22.498;2022-10-14T01:03:39;37.10;;;22.02;;
23148;SDS011;11743;51.228;22.498;2022-10-14T01:04:02;39.47;;;22.58;;
23148;SDS011;11743;51.228;22.498;2022-10-14T01:04:24;40.33;;;21.88;;
23148;SDS011;11743;51.228;22.498;2022-10-14T01:04:48;38.00;;;21.48;;
23148;SDS011;11743;51.228;22.498;2022-10-14T01:05:10;45.63;;;23.00;;
23148;SDS011;11743;51.228;22.498;2022-10-14T01:05:37;37.40;;;21.88;;
23148;SDS011;11743;51.228;22.498;2022-10-14T01:07:58;35.65;;;20.85;;
23148;SDS011;11743;51.228;22.498;2022-10-14T01:08:26;41.00;;;23.23;;
23148;SDS011;11743;51.228;22.498;2022-10-14T01:09:31;41.03;;;22.73;;
23148;SDS011;11743;51.228;22.498;2022-10-14T01:10:21;37.33;;;21.38;;
23148;SDS011;11743;51.228;22.498;2022-10-14T01:13:39;40.33;;;22.65;;
23148;SDS011;11743;51.228;22.498;2022-10-14T01:14:07;42.45;;;23.52;;
23148;SDS011;11743;51.228;22.498;2022-10-14T01:14:52;39.28;;;23.25;;
23148;SDS011;11743;51.228;22.498;2022-10-14T01:16:44;43.87;;;24.07;;
23148;SDS011;11743;51.228;22.498;2022-10-14T01:17:15;43.13;;;24.50;;
23148;SDS011;11743;51.228;22.498;2022-10-14T01:17:56;42.97;;;24.70;;
23148;SDS011;11743;51.228;22.498;2022-10-14T01:20:22;49.53;;;25.42;;
23148;SDS011;11743;51.228;22.498;2022-10-14T01:20:52;44.45;;;24.65;;
23148;SDS011;11743;51.228;22.498;2022-10-14T01:21:51;45.30;;;26.33;;
23148;SDS011;11743;51.228;22.498;2022-10-14T01:28:19;42.92;;;24.38;;
23148;SDS011;11743;51.228;22.498;2022-10-14T01:29:48;45.47;;;25.13;;
23148;SDS011;11743;51.228;22.498;2022-10-14T01:30:21;49.00;;;26.10;;
23148;SDS011;11743;51.228;22.498;2022-10-14T01:30:54;44.20;;;25.23;;
23148;SDS011;11743;51.228;22.498;2022-10-14T01:31:30;47.65;;;25.98;;
23148;SDS011;11743;51.228;22.498;2022-10-14T01:31:58;45.80;;;25.80;;
23148;SDS011;11743;51.228;22.498;2022-10-14T01:33:43;47.00;;;25.35;;
23148;SDS011;11743;51.228;22.498;2022-10-14T01:34:08;45.40;;;25.77;;
23148;SDS011;11743;51.228;22.498;2022-10-14T01:34:41;49.08;;;26.25;;
23148;SDS011;11743;51.228;22.498;2022-10-14T01:36:32;39.92;;;24.42;;
23148;SDS011;11743;51.228;22.498;2022-10-14T01:37:06;44.97;;;25.60;;
23148;SDS011;11743;51.228;22.498;2022-10-14T01:37:36;45.00;;;25.13;;
23148;SDS011;11743;51.228;22.498;2022-10-14T01:38:10;45.60;;;25.70;;
23148;SDS011;11743;51.228;22.498;2022-10-14T01:38:40;49.13;;;26.65;;
23148;SDS011;11743;51.228;22.498;2022-10-14T01:39:16;48.75;;;28.23;;
23148;SDS011;11743;51.228;22.498;2022-10-14T01:39:43;48.47;;;27.67;;
23148;SDS011;11743;51.228;22.498;2022-10-14T01:40:11;48.30;;;25.58;;
23148;SDS011;11743;51.228;22.498;2022-10-14T01:40:46;46.90;;;25.98;;
23148;SDS011;11743;51.228;22.498;2022-10-14T01:41:26;48.63;;;27.48;;
23148;SDS011;11743;51.228;22.498;2022-10-14T01:42:10;49.38;;;27.67;;
23148;SDS011;11743;51.228;22.498;2022-10-14T01:42:37;47.95;;;27.25;;
23148;SDS011;11743;51.228;22.498;2022-10-14T01:43:01;54.72;;;29.17;;
23148;SDS011;11743;51.228;22.498;2022-10-14T01:43:26;55.72;;;28.55;;
23148;SDS011;11743;51.228;22.498;2022-10-14T01:43:50;52.13;;;28.30;;
23148;SDS011;11743;51.228;22.498;2022-10-14T01:44:15;51.38;;;28.65;;
23148;SDS011;11743;51.228;22.498;2022-10-14T01:44:42;48.80;;;27.55;;
23148;SDS011;11743;51.228;22.498;2022-10-14T01:45:10;48.75;;;27.05;;
23148;SDS011;11743;51.228;22.498;2022-10-14T01:45:35;50.70;;;26.88;;
23148;SDS011;11743;51.228;22.498;2022-10-14T01:46:00;46.45;;;25.67;;
23148;SDS011;11743;51.228;22.498;2022-10-14T01:46:24;50.78;;;26.75;;
23148;SDS011;11743;51.228;22.498;2022-10-14T01:46:49;49.38;;;27.92;;
23148;SDS011;11743;51.228;22.498;2022-10-14T01:47:15;48.80;;;27.58;;
23148;SDS011;11743;51.228;22.498;2022-10-14T01:47:40;50.40;;;27.08;;
23148;SDS011;11743;51.228;22.498;2022-10-14T01:48:02;50.13;;;27.85;;
23148;SDS011;11743;51.228;22.498;2022-10-14T01:48:28;51.20;;;27.10;;
23148;SDS011;11743;51.228;22.498;2022-10-14T01:48:57;49.22;;;28.02;;
23148;SDS011;11743;51.228;22.498;2022-10-14T01:49:58;46.88;;;26.38;;
23148;SDS011;11743;51.228;22.498;2022-10-14T01:50:19;47.90;;;26.80;;
23148;SDS011;11743;51.228;22.498;2022-10-14T01:50:47;47.65;;;26.90;;
23148;SDS011;11743;51.228;22.498;2022-10-14T01:51:14;45.45;;;26.20;;
23148;SDS011;11743;51.228;22.498;2022-10-14T01:51:41;44.50;;;26.02;;
23148;SDS011;11743;51.228;22.498;2022-10-14T01:52:09;45.47;;;26.73;;
23148;SDS011;11743;51.228;22.498;2022-10-14T01:52:46;42.42;;;25.85;;
23148;SDS011;11743;51.228;22.498;2022-10-14T01:53:31;43.08;;;25.30;;
23148;SDS011;11743;51.228;22.498;2022-10-14T01:54:09;42.75;;;24.30;;
23148;SDS011;11743;51.228;22.498;2022-10-14T01:54:39;46.95;;;25.48;;
23148;SDS011;11743;51.228;22.498;2022-10-14T01:55:04;47.53;;;26.63;;
23148;SDS011;11743;51.228;22.498;2022-10-14T01:55:31;46.97;;;26.08;;
23148;SDS011;11743;51.228;22.498;2022-10-14T01:56:01;51.58;;;25.83;;
23148;SDS011;11743;51.228;22.498;2022-10-14T01:56:25;49.20;;;25.73;;
23148;SDS011;11743;51.228;22.498;2022-10-14T01:56:50;47.55;;;25.63;;
23148;SDS011;11743;51.228;22.498;2022-10-14T01:57:16;45.38;;;25.13;;
23148;SDS011;11743;51.228;22.498;2022-10-14T01:57:42;44.92;;;24.42;;
23148;SDS011;11743;51.228;22.498;2022-10-14T01:58:05;41.97;;;24.05;;
23148;SDS011;11743;51.228;22.498;2022-10-14T01:58:29;42.17;;;24.40;;
23148;SDS011;11743;51.228;22.498;2022-10-14T01:58:53;49.83;;;25.73;;
23148;SDS011;11743;51.228;22.498;2022-10-14T01:59:16;50.30;;;25.13;;
23148;SDS011;11743;51.228;22.498;2022-10-14T01:59:40;43.88;;;24.42;;
23148;SDS011;11743;51.228;22.498;2022-10-14T02:00:04;44.45;;;25.27;;
23148;SDS011;11743;51.228;22.498;2022-10-14T02:00:27;44.97;;;25.35;;
23148;SDS011;11743;51.228;22.498;2022-10-14T02:00:49;46.47;;;25.15;;
23148;SDS011;11743;51.228;22.498;2022-10-14T02:01:11;43.88;;;25.13;;
23148;SDS011;11743;51.228;22.498;2022-10-14T02:01:33;44.05;;;25.10;;
23148;SDS011;11743;51.228;22.498;2022-10-14T02:01:56;44.10;;;26.17;;
23148;SDS011;11743;51.228;22.498;2022-10-14T02:02:18;46.78;;;25.33;;
23148;SDS011;11743;51.228;22.498;2022-10-14T02:02:41;45.10;;;24.13;;
23148;SDS011;11743;51.228;22.498;2022-10-14T02:03:03;42.20;;;24.30;;
23148;SDS011;11743;51.228;22.498;2022-10-14T02:03:36;41.15;;;24.23;;
23148;SDS011;11743;51.228;22.498;2022-10-14T02:04:02;45.67;;;24.85;;
23148;SDS011;11743;51.228;22.498;2022-10-14T02:04:38;42.20;;;24.23;;
23148;SDS011;11743;51.228;22.498;2022-10-14T02:05:00;40.63;;;23.83;;
23148;SDS011;11743;51.228;22.498;2022-10-14T02:06:20;43.25;;;25.25;;
23148;SDS011;11743;51.228;22.498;2022-10-14T02:07:02;44.83;;;24.67;;
23148;SDS011;11743;51.228;22.498;2022-10-14T02:07:39;41.70;;;23.80;;
23148;SDS011;11743;51.228;22.498;2022-10-14T02:11:31;47.30;;;24.98;;
23148;SDS011;11743;51.228;22.498;2022-10-14T02:14:27;42.42;;;23.52;;
23148;SDS011;11743;51.228;22.498;2022-10-14T02:15:38;41.60;;;24.05;;
23148;SDS011;11743;51.228;22.498;2022-10-14T02:16:53;38.78;;;22.83;;
23148;SDS011;11743;51.228;22.498;2022-10-14T02:17:03;44.20;;;24.70;;
23148;SDS011;11743;51.228;22.498;2022-10-14T02:18:12;44.65;;;24.02;;
23148;SDS011;11743;51.228;22.498;2022-10-14T02:18:50;44.92;;;25.05;;
23148;SDS011;11743;51.228;22.498;2022-10-14T02:19:51;43.15;;;25.15;;
23148;SDS011;11743;51.228;22.498;2022-10-14T02:20:48;50.20;;;25.08;;
23148;SDS011;11743;51.228;22.498;2022-10-14T02:22:01;41.65;;;23.95;;
23148;SDS011;11743;51.228;22.498;2022-10-14T02:23:32;42.08;;;24.70;;
23148;SDS011;11743;51.228;22.498;2022-10-14T02:24:01;38.35;;;22.60;;
23148;SDS011;11743;51.228;22.498;2022-10-14T02:24:34;37.20;;;22.80;;
23148;SDS011;11743;51.228;22.498;2022-10-14T02:25:02;39.75;;;23.20;;
23148;SDS011;11743;51.228;22.498;2022-10-14T02:25:33;41.03;;;24.33;;
23148;SDS011;11743;51.228;22.498;2022-10-14T02:25:57;43.20;;;24.67;;
23148;SDS011;11743;51.228;22.498;2022-10-14T02:26:20;42.08;;;24.13;;
23148;SDS011;11743;51.228;22.498;2022-10-14T02:26:44;42.13;;;23.92;;
23148;SDS011;11743;51.228;22.498;2022-10-14T02:27:10;45.10;;;24.20;;
23148;SDS011;11743;51.228;22.498;2022-10-14T02:27:35;42.92;;;23.95;;
23148;SDS011;11743;51.228;22.498;2022-10-14T02:27:59;41.42;;;23.58;;
23148;SDS011;11743;51.228;22.498;2022-10-14T02:28:24;44.35;;;24.05;;
23148;SDS011;11743;51.228;22.498;2022-10-14T02:28:49;40.25;;;22.85;;
23148;SDS011;11743;51.228;22.498;2022-10-14T02:29:13;41.03;;;24.67;;
23148;SDS011;11743;51.228;22.498;2022-10-14T02:29:37;35.50;;;22.60;;
23148;SDS011;11743;51.228;22.498;2022-10-14T02:30:03;42.88;;;25.15;;
23148;SDS011;11743;51.228;22.498;2022-10-14T02:30:28;50.60;;;28.23;;
23148;SDS011;11743;51.228;22.498;2022-10-14T02:30:55;49.28;;;27.45;;
23148;SDS011;11743;51.228;22.498;2022-10-14T02:31:21;45.25;;;26.20;;
23148;SDS011;11743;51.228;22.498;2022-10-14T02:31:45;47.42;;;26.67;;
23148;SDS011;11743;51.228;22.498;2022-10-14T02:32:08;49.20;;;27.63;;
23148;SDS011;11743;51.228;22.498;2022-10-14T02:32:31;56.55;;;28.02;;
23148;SDS011;11743;51.228;22.498;2022-10-14T02:32:54;54.78;;;27.50;;
23148;SDS011;11743;51.228;22.498;2022-10-14T02:33:19;49.00;;;26.00;;
23148;SDS011;11743;51.228;22.498;2022-10-14T02:33:44;48.97;;;26.55;;
23148;SDS011;11743;51.228;22.498;2022-10-14T02:34:10;47.67;;;27.63;;
23148;SDS011;11743;51.228;22.498;2022-10-14T02:34:36;50.53;;;28.20;;
23148;SDS011;11743;51.228;22.498;2022-10-14T02:34:58;48.63;;;27.67;;
23148;SDS011;11743;51.228;22.498;2022-10-14T02:35:22;46.67;;;27.05;;
23148;SDS011;11743;51.228;22.498;2022-10-14T02:35:45;48.05;;;28.08;;
23148;SDS011;11743;51.228;22.498;2022-10-14T02:36:10;49.20;;;28.42;;
23148;SDS011;11743;51.228;22.498;2022-10-14T02:36:36;45.13;;;26.63;;
23148;SDS011;11743;51.228;22.498;2022-10-14T02:37:00;52.50;;;26.92;;
23148;SDS011;11743;51.228;22.498;2022-10-14T02:37:22;55.38;;;29.02;;
23148;SDS011;11743;51.228;22.498;2022-10-14T02:37:47;51.33;;;28.05;;
23148;SDS011;11743;51.228;22.498;2022-10-14T02:38:11;47.45;;;26.60;;
23148;SDS011;11743;51.228;22.498;2022-10-14T02:38:33;50.80;;;28.30;;
23148;SDS011;11743;51.228;22.498;2022-10-14T02:38:56;51.70;;;27.63;;
23148;SDS011;11743;51.228;22.498;2022-10-14T02:39:23;50.83;;;28.95;;
23148;SDS011;11743;51.228;22.498;2022-10-14T02:40:12;46.53;;;26.83;;
23148;SDS011;11743;51.228;22.498;2022-10-14T02:40:39;50.65;;;27.45;;
23148;SDS011;11743;51.228;22.498;2022-10-14T02:41:05;48.83;;;26.50;;
23148;SDS011;11743;51.228;22.498;2022-10-14T02:41:33;43.78;;;25.15;;
23148;SDS011;11743;51.228;22.498;2022-10-14T02:41:57;43.67;;;24.90;;
23148;SDS011;11743;51.228;22.498;2022-10-14T02:42:19;43.53;;;25.25;;
23148;SDS011;11743;51.228;22.498;2022-10-14T02:42:41;45.20;;;25.63;;
23148;SDS011;11743;51.228;22.498;2022-10-14T02:43:03;48.47;;;26.63;;
23148;SDS011;11743;51.228;22.498;2022-10-14T02:43:25;45.53;;;26.95;;
23148;SDS011;11743;51.228;22.498;2022-10-14T02:43:47;49.35;;;26.58;;
23148;SDS011;11743;51.228;22.498;2022-10-14T02:44:09;45.42;;;25.65;;
23148;SDS011;11743;51.228;22.498;2022-10-14T02:44:31;44.17;;;25.05;;
23148;SDS011;11743;51.228;22.498;2022-10-14T02:44:53;43.40;;;24.02;;
23148;SDS011;11743;51.228;22.498;2022-10-14T02:45:18;39.80;;;23.83;;
23148;SDS011;11743;51.228;22.498;2022-10-14T02:45:41;45.20;;;24.40;;
23148;SDS011;11743;51.228;22.498;2022-10-14T02:46:04;39.97;;;23.88;;
23148;SDS011;11743;51.228;22.498;2022-10-14T02:46:26;39.20;;;23.40;;
23148;SDS011;11743;51.228;22.498;2022-10-14T02:46:53;42.60;;;24.20;;
23148;SDS011;11743;51.228;22.498;2022-10-14T02:47:16;38.03;;;23.27;;
23148;SDS011;11743;51.228;22.498;2022-10-14T02:47:38;38.05;;;23.20;;
23148;SDS011;11743;51.228;22.498;2022-10-14T02:48:00;40.95;;;23.13;;
23148;SDS011;11743;51.228;22.498;2022-10-14T02:48:23;46.20;;;25.08;;
23148;SDS011;11743;51.228;22.498;2022-10-14T02:48:44;46.13;;;24.95;;
23148;SDS011;11743;51.228;22.498;2022-10-14T02:49:06;43.15;;;24.77;;
23148;SDS011;11743;51.228;22.498;2022-10-14T02:49:28;42.60;;;24.13;;
23148;SDS011;11743;51.228;22.498;2022-10-14T02:49:50;44.20;;;24.45;;
23148;SDS011;11743;51.228;22.498;2022-10-14T02:50:12;43.13;;;24.73;;
23148;SDS011;11743;51.228;22.498;2022-10-14T02:50:34;45.38;;;25.38;;
23148;SDS011;11743;51.228;22.498;2022-10-14T02:50:57;46.90;;;26.05;;
23148;SDS011;11743;51.228;22.498;2022-10-14T02:51:18;47.00;;;26.40;;
23148;SDS011;11743;51.228;22.498;2022-10-14T02:51:40;48.08;;;26.60;;
23148;SDS011;11743;51.228;22.498;2022-10-14T02:52:12;53.92;;;29.80;;
23148;SDS011;11743;51.228;22.498;2022-10-14T02:52:34;52.95;;;28.95;;
23148;SDS011;11743;51.228;22.498;2022-10-14T02:52:56;52.17;;;29.67;;
23148;SDS011;11743;51.228;22.498;2022-10-14T02:53:18;52.00;;;29.92;;
23148;SDS011;11743;51.228;22.498;2022-10-14T02:53:40;53.28;;;30.30;;
23148;SDS011;11743;51.228;22.498;2022-10-14T02:54:02;54.22;;;30.15;;
23148;SDS011;11743;51.228;22.498;2022-10-14T02:54:24;53.38;;;29.55;;
23148;SDS011;11743;51.228;22.498;2022-10-14T02:54:46;53.33;;;29.15;;
23148;SDS011;11743;51.228;22.498;2022-10-14T02:55:08;54.90;;;29.38;;
23148;SDS011;11743;51.228;22.498;2022-10-14T02:55:30;52.95;;;28.92;;
23148;SDS011;11743;51.228;22.498;2022-10-14T02:55:52;54.65;;;30.02;;
23148;SDS011;11743;51.228;22.498;2022-10-14T02:56:14;53.28;;;29.13;;